Scottsmoor, Florida
Current Conditions -  °F | °C
As of 12:58 PM on Thursday 18 Dec 2014 (Local Time) from KTTS Reporting Station
Clear Clear  
Wind Chill: 67°   Ceiling: Unl
Heat Index: 67°   Visibility: 10mi
Dew Point: 47°   Wind: 7mph
Humidity: 48%   Direction: 30°NNE
Pressure: 30.14"   Gusts: NA
Location:  28.77°N, 80.88°W
Report Text: KTTS 181758Z AUTO 03006KT 10SM CLR 20/08 A3014 RMK AO2 SLP210 T01970083 10198 20077 58014
Loading
Personal Weather Stations






























Interactive Weather Map New forecast layout! Learn more

10-Day Weather Forecast

Advertisements
Track Severe Weather on mobile